Time;durP1;ratioP1;P1;durP2;ratioP2;P2;SDS_P1;SDS_P2;PMS_P1;PMS_P2;Temp;Humidity;BMP_temperature;BMP_pressure;BME280_temperature;BME280_humidity;BME280_pressure;Samples;Min_cycle;Max_cycle;Signal;HPM_P1;HPM_P2
2022/11/12 00:01:29;;;;;;;16.17;11.68;;;5.30;99.90;;;;;;5149024;27;20484;-77
2022/11/12 00:03:56;;;;;;;14.45;11.52;;;5.30;99.90;;;;;;5149483;27;20077;-77
2022/11/12 00:06:21;;;;;;;18.52;12.20;;;5.40;99.90;;;;;;5140440;27;20050;-77
2022/11/12 00:08:50;;;;;;;18.02;11.00;;;5.40;99.90;;;;;;5151331;27;20046;-78
2022/11/12 00:11:15;;;;;;;16.50;11.77;;;5.30;99.90;;;;;;5149302;27;20129;-76
2022/11/12 00:13:41;;;;;;;16.10;11.50;;;5.30;99.90;;;;;;5149225;27;20498;-77
2022/11/12 00:16:07;;;;;;;17.48;11.48;;;5.30;99.90;;;;;;5146970;27;20098;-77
2022/11/12 00:18:32;;;;;;;16.35;11.73;;;5.20;99.90;;;;;;5131492;27;20042;-77
2022/11/12 00:20:58;;;;;;;20.35;12.15;;;5.20;99.90;;;;;;5131666;27;20031;-78
2022/11/12 00:23:26;;;;;;;17.65;11.85;;;5.20;99.90;;;;;;5147147;27;20464;-77
2022/11/12 00:26:01;;;;;;;21.95;12.32;;;5.20;99.90;;;;;;5147937;27;20070;-76
2022/11/12 00:28:27;;;;;;;21.88;13.93;;;5.20;99.90;;;;;;5150272;27;20521;-77
2022/11/12 00:30:53;;;;;;;17.17;12.63;;;5.30;99.90;;;;;;5133086;27;20062;-77
2022/11/12 00:33:18;;;;;;;17.02;12.07;;;5.20;99.90;;;;;;5116658;27;20098;-77
2022/11/12 00:35:44;;;;;;;21.77;12.32;;;5.20;99.90;;;;;;5145840;27;20391;-76
2022/11/12 00:38:09;;;;;;;20.38;12.00;;;5.30;99.90;;;;;;5147807;27;20039;-77
2022/11/12 00:40:35;;;;;;;20.40;12.18;;;5.20;99.90;;;;;;5130617;27;20058;-76
2022/11/12 00:43:00;;;;;;;15.80;12.13;;;5.20;99.90;;;;;;5147585;27;20511;-76
2022/11/12 00:45:26;;;;;;;19.70;14.10;;;5.20;99.90;;;;;;5146819;27;20408;-77
2022/11/12 00:47:55;;;;;;;19.70;13.60;;;5.20;99.90;;;;;;5148568;27;20395;-77
2022/11/12 00:50:21;;;;;;;21.20;13.70;;;5.30;99.90;;;;;;5141040;27;20043;-77
2022/11/12 00:52:47;;;;;;;21.83;14.05;;;5.30;99.90;;;;;;5146835;27;20065;-77
2022/11/12 00:55:12;;;;;;;23.50;12.95;;;5.30;99.90;;;;;;5147926;27;20093;-77
2022/11/12 00:57:38;;;;;;;20.45;13.50;;;5.20;99.90;;;;;;5149423;27;20035;-77
2022/11/12 01:00:07;;;;;;;20.80;12.88;;;5.20;99.90;;;;;;5147132;27;20043;-77
2022/11/12 01:02:33;;;;;;;19.40;13.02;;;5.20;99.90;;;;;;5128985;27;20049;-77
2022/11/12 01:04:59;;;;;;;20.73;12.77;;;5.20;99.90;;;;;;5146465;27;20095;-77
2022/11/12 01:07:26;;;;;;;20.60;14.05;;;5.10;99.90;;;;;;5144333;27;20050;-77
2022/11/12 01:09:51;;;;;;;20.92;14.48;;;5.20;99.90;;;;;;5129790;27;20046;-77
2022/11/12 01:12:17;;;;;;;25.55;13.93;;;5.10;99.90;;;;;;5129660;27;20099;-77
2022/11/12 01:14:42;;;;;;;21.27;14.50;;;5.10;99.90;;;;;;5148294;27;20385;-77
2022/11/12 01:17:08;;;;;;;19.00;13.35;;;5.10;99.90;;;;;;5128400;27;20039;-77
2022/11/12 01:19:33;;;;;;;22.52;14.15;;;5.10;99.90;;;;;;5120544;27;20043;-77
2022/11/12 01:21:59;;;;;;;22.40;14.57;;;5.20;99.90;;;;;;5118764;27;20043;-77
2022/11/12 01:24:24;;;;;;;21.33;14.55;;;5.10;99.90;;;;;;5147213;27;20045;-77
2022/11/12 01:26:50;;;;;;;22.58;13.85;;;5.10;99.90;;;;;;5132157;27;20085;-77
2022/11/12 01:29:15;;;;;;;22.75;13.70;;;5.10;99.90;;;;;;5110202;28;20048;-77
2022/11/12 01:31:41;;;;;;;21.23;14.65;;;5.00;99.90;;;;;;5129507;27;20489;-77
2022/11/12 01:34:08;;;;;;;24.02;14.93;;;4.40;99.90;;;;;;5139071;27;20378;-77
2022/11/12 01:36:36;;;;;;;22.67;14.35;;;5.10;99.90;;;;;;5147764;27;20483;-77
2022/11/12 01:39:04;;;;;;;20.75;14.23;;;5.00;99.90;;;;;;5152220;27;20047;-77
2022/11/12 01:41:32;;;;;;;19.25;12.80;;;5.00;99.90;;;;;;5151527;27;20086;-77
2022/11/12 01:44:19;;;;;;;22.98;14.02;;;5.00;99.90;;;;;;5151335;27;20548;-77
2022/11/12 01:47:05;;;;;;;22.58;13.60;;;5.00;99.90;;;;;;5149656;27;20078;-78
2022/11/12 01:49:45;;;;;;;18.60;13.15;;;4.90;99.90;;;;;;5150915;27;20046;-77
2022/11/12 01:52:39;;;;;;;21.65;13.93;;;4.80;99.90;;;;;;5149993;27;20042;-77
2022/11/12 01:55:12;;;;;;;19.35;13.52;;;4.90;99.90;;;;;;5150135;27;20051;-78
2022/11/12 01:57:43;;;;;;;19.77;13.57;;;4.80;99.90;;;;;;5150315;27;20508;-77
2022/11/12 02:00:11;;;;;;;21.40;13.63;;;4.80;99.90;;;;;;5139824;27;20115;-77
2022/11/12 02:02:37;;;;;;;20.30;12.82;;;4.80;99.90;;;;;;5124490;27;20067;-77
2022/11/12 02:05:08;;;;;;;20.10;13.27;;;4.70;99.90;;;;;;5149094;27;20074;-76
2022/11/12 02:07:37;;;;;;;23.10;14.40;;;4.70;99.90;;;;;;5146925;27;20499;-78
2022/11/12 02:10:06;;;;;;;19.45;13.60;;;4.70;99.90;;;;;;5149710;27;20459;-78
2022/11/12 02:15:16;;;;;;;18.52;13.65;;;4.60;99.90;;;;;;5148276;27;20134;-78
2022/11/12 02:17:42;;;;;;;19.27;13.45;;;4.50;99.90;;;;;;5136895;27;20126;-78
2022/11/12 02:20:10;;;;;;;22.30;15.10;;;4.50;99.90;;;;;;5150746;27;20146;-77
2022/11/12 02:22:35;;;;;;;20.77;13.93;;;4.40;99.90;;;;;;5151013;27;20114;-77
2022/11/12 02:25:01;;;;;;;21.40;13.93;;;4.50;99.90;;;;;;5149871;27;20046;-76
2022/11/12 02:27:27;;;;;;;20.85;13.57;;;4.40;99.90;;;;;;5131612;27;20071;-76
2022/11/12 02:29:53;;;;;;;19.08;13.27;;;4.40;99.90;;;;;;5131693;27;20146;-76
2022/11/12 02:32:18;;;;;;;19.88;13.23;;;4.40;99.90;;;;;;5133755;27;20440;-77
2022/11/12 02:34:44;;;;;;;21.38;14.10;;;4.40;99.90;;;;;;5131292;27;20047;-76
2022/11/12 02:37:10;;;;;;;21.10;15.10;;;4.40;99.90;;;;;;5147962;27;20442;-77
2022/11/12 02:39:36;;;;;;;21.83;14.88;;;4.40;99.90;;;;;;5150694;27;20095;-76
2022/11/12 02:42:01;;;;;;;18.20;13.52;;;4.40;99.90;;;;;;5131246;27;20050;-76
2022/11/12 02:44:27;;;;;;;21.00;14.18;;;4.40;99.90;;;;;;5127217;27;20382;-76
2022/11/12 02:46:53;;;;;;;22.42;14.63;;;4.40;99.90;;;;;;5142485;27;20047;-76
2022/11/12 02:49:18;;;;;;;24.05;14.93;;;4.40;99.90;;;;;;5152053;27;20361;-76
2022/11/12 02:51:44;;;;;;;23.50;14.63;;;4.40;99.90;;;;;;5151020;27;20066;-76
2022/11/12 02:54:09;;;;;;;23.98;14.63;;;4.40;99.90;;;;;;5149768;27;20038;-76
2022/11/12 02:56:35;;;;;;;24.15;13.90;;;4.30;99.90;;;;;;5149435;27;20043;-77
2022/11/12 02:59:01;;;;;;;21.58;13.43;;;4.30;99.90;;;;;;5139318;27;20050;-77
2022/11/12 03:01:26;;;;;;;23.35;14.05;;;4.30;99.90;;;;;;5143678;27;20042;-76
2022/11/12 03:03:52;;;;;;;21.65;14.00;;;4.30;99.90;;;;;;5142547;27;20047;-77
2022/11/12 03:06:18;;;;;;;20.92;14.18;;;4.30;99.90;;;;;;5134302;27;20118;-77
2022/11/12 03:08:43;;;;;;;20.30;14.30;;;4.20;99.90;;;;;;5151039;27;20054;-76
2022/11/12 03:11:11;;;;;;;21.73;14.95;;;4.20;99.90;;;;;;5147801;27;20050;-77
2022/11/12 03:13:38;;;;;;;24.00;15.55;;;4.20;99.90;;;;;;5150883;27;20046;-76
2022/11/12 03:16:04;;;;;;;22.95;15.98;;;4.30;99.90;;;;;;5115393;27;20031;-77
2022/11/12 03:18:30;;;;;;;24.13;14.30;;;4.30;99.90;;;;;;5149037;27;20126;-77
2022/11/12 03:20:56;;;;;;;23.55;14.60;;;4.30;99.90;;;;;;5149177;27;20549;-77
2022/11/12 03:23:21;;;;;;;21.67;15.75;;;4.20;99.90;;;;;;5148495;27;20039;-77
2022/11/12 03:25:47;;;;;;;27.13;15.82;;;4.20;99.90;;;;;;5149293;27;20041;-77
2022/11/12 03:28:15;;;;;;;24.98;15.45;;;4.30;99.90;;;;;;5149056;27;20153;-77
2022/11/12 03:30:42;;;;;;;24.58;15.00;;;4.40;99.90;;;;;;5143058;27;20215;-77
2022/11/12 03:33:10;;;;;;;22.55;14.40;;;4.50;99.90;;;;;;5139334;27;20045;-77
2022/11/12 03:35:36;;;;;;;21.30;14.93;;;4.50;99.90;;;;;;5148332;27;20061;-77
2022/11/12 03:38:03;;;;;;;19.25;14.00;;;4.40;99.90;;;;;;5149638;27;20054;-77
2022/11/12 03:40:29;;;;;;;22.40;14.38;;;4.40;99.90;;;;;;5149158;27;20504;-76
2022/11/12 03:42:55;;;;;;;19.73;13.98;;;4.30;99.90;;;;;;5147493;27;20128;-76
2022/11/12 03:45:23;;;;;;;20.27;13.70;;;4.30;99.90;;;;;;5139395;27;21876;-77
2022/11/12 03:47:51;;;;;;;22.17;14.60;;;4.20;99.90;;;;;;5111765;27;20054;-77
2022/11/12 03:50:18;;;;;;;17.92;14.00;;;4.20;99.90;;;;;;5131656;27;20114;-77
2022/11/12 03:52:49;;;;;;;18.42;12.45;;;4.10;99.90;;;;;;5132476;27;20688;-77
2022/11/12 03:55:16;;;;;;;17.10;12.93;;;4.10;99.90;;;;;;5150031;27;20050;-76
2022/11/12 03:57:43;;;;;;;19.25;13.23;;;4.00;99.90;;;;;;5113109;27;20508;-77
2022/11/12 04:00:10;;;;;;;21.08;14.35;;;4.00;99.90;;;;;;5143557;27;20143;-77
2022/11/12 04:02:36;;;;;;;20.52;14.70;;;4.10;99.90;;;;;;5150080;27;20517;-77
2022/11/12 04:10:57;;;;;;;23.17;14.02;;;4.10;99.90;;;;;;5147867;27;20523;-77
2022/11/12 04:13:28;;;;;;;19.75;12.95;;;4.10;99.90;;;;;;5148531;27;20039;-77
2022/11/12 04:21:51;;;;;;;18.83;13.18;;;4.00;99.90;;;;;;5147706;27;20496;-76
2022/11/12 04:27:03;;;;;;;20.20;13.93;;;3.90;99.90;;;;;;5130510;27;20051;-77
2022/11/12 04:32:14;;;;;;;16.50;12.57;;;3.90;99.90;;;;;;5148105;27;20157;-76
2022/11/12 04:34:40;;;;;;;16.60;11.95;;;3.80;99.90;;;;;;5149520;27;20552;-76
2022/11/12 04:37:06;;;;;;;19.92;12.75;;;3.80;99.90;;;;;;5149135;27;20049;-77
2022/11/12 04:39:31;;;;;;;18.80;12.50;;;3.80;99.90;;;;;;5147695;27;20042;-77
2022/11/12 04:47:36;;;;;;;16.92;12.35;;;3.80;99.90;;;;;;5128551;27;20513;-76
2022/11/12 04:50:04;;;;;;;19.20;12.52;;;3.90;99.90;;;;;;5143672;27;20047;-76
2022/11/12 04:52:30;;;;;;;17.23;12.27;;;4.00;99.90;;;;;;5149623;27;20046;-76
2022/11/12 04:54:57;;;;;;;19.35;12.88;;;3.90;99.90;;;;;;5149000;27;20524;-77
2022/11/12 04:57:22;;;;;;;19.63;12.20;;;3.90;99.90;;;;;;5136536;27;20047;-77
2022/11/12 04:59:48;;;;;;;17.40;12.90;;;3.90;99.90;;;;;;5145739;27;20103;-77
2022/11/12 05:02:15;;;;;;;17.60;11.63;;;3.90;99.90;;;;;;5147082;27;20043;-77
2022/11/12 05:04:41;;;;;;;19.90;12.93;;;3.80;99.90;;;;;;5148405;27;20121;-76
2022/11/12 05:07:06;;;;;;;16.52;12.38;;;3.80;99.90;;;;;;5145697;27;20125;-77
2022/11/12 05:09:32;;;;;;;17.02;11.48;;;3.80;99.90;;;;;;5149560;27;20471;-76
2022/11/12 05:11:58;;;;;;;21.38;12.48;;;3.70;99.90;;;;;;5126968;27;20039;-76
2022/11/12 05:14:24;;;;;;;16.42;11.70;;;3.70;99.90;;;;;;5143159;27;20106;-77
2022/11/12 05:16:50;;;;;;;14.68;10.80;;;3.70;99.90;;;;;;5148485;27;20529;-77
2022/11/12 05:19:15;;;;;;;18.05;12.07;;;3.70;99.90;;;;;;5146372;27;20166;-77
2022/11/12 05:24:25;;;;;;;16.88;11.40;;;3.60;99.90;;;;;;5148418;27;20559;-77
2022/11/12 05:26:51;;;;;;;18.45;11.13;;;3.70;99.90;;;;;;5146793;27;20142;-76
2022/11/12 05:29:16;;;;;;;18.65;10.65;;;3.70;99.90;;;;;;5143313;27;20065;-77
2022/11/12 05:31:42;;;;;;;21.00;12.90;;;3.70;99.90;;;;;;5129253;27;20408;-77
2022/11/12 05:34:08;;;;;;;17.63;11.80;;;3.60;99.90;;;;;;5128234;27;20055;-77
2022/11/12 05:36:33;;;;;;;18.48;12.02;;;3.60;99.90;;;;;;5142449;27;20051;-77
2022/11/12 05:38:59;;;;;;;48.97;13.02;;;3.60;99.90;;;;;;5147107;27;20047;-77
2022/11/12 05:41:25;;;;;;;50.72;13.15;;;3.60;99.90;;;;;;5140528;27;20039;-77
2022/11/12 05:43:51;;;;;;;22.98;12.15;;;3.60;99.90;;;;;;5143400;27;20643;-77
2022/11/12 05:46:17;;;;;;;19.83;12.48;;;4.20;99.90;;;;;;5128958;27;20039;-77
2022/11/12 05:48:43;;;;;;;21.85;12.88;;;4.20;99.90;;;;;;5148883;27;20046;-77
2022/11/12 05:51:08;;;;;;;14.52;11.35;;;3.70;99.90;;;;;;5135731;27;20050;-78
2022/11/12 05:53:34;;;;;;;19.30;11.38;;;3.70;99.90;;;;;;5131390;27;20045;-78
2022/11/12 05:56:01;;;;;;;21.35;11.63;;;3.70;99.90;;;;;;5146761;27;20510;-77
2022/11/12 05:58:26;;;;;;;22.75;12.82;;;3.70;99.90;;;;;;5128573;27;20061;-77
2022/11/12 06:00:52;;;;;;;25.95;11.80;;;3.70;99.90;;;;;;5115201;27;20395;-77
2022/11/12 06:03:17;;;;;;;26.10;12.80;;;3.70;99.90;;;;;;5147567;27;20054;-78
2022/11/12 06:05:43;;;;;;;22.38;11.02;;;3.70;99.90;;;;;;5125886;27;20404;-77
2022/11/12 06:08:08;;;;;;;41.08;11.30;;;3.60;99.90;;;;;;5145818;27;20099;-77
2022/11/12 06:10:34;;;;;;;85.53;13.60;;;3.60;99.90;;;;;;5146121;27;20049;-78
2022/11/12 06:13:00;;;;;;;48.53;12.18;;;3.70;99.90;;;;;;5135851;27;20035;-77
2022/11/12 06:15:26;;;;;;;74.97;15.77;;;3.70;99.90;;;;;;5137585;27;20047;-77
2022/11/12 06:17:52;;;;;;;60.15;13.07;;;3.80;99.90;;;;;;5142556;27;20045;-78
2022/11/12 06:20:18;;;;;;;20.98;10.48;;;3.80;99.90;;;;;;5120035;27;20068;-78
2022/11/12 06:22:44;;;;;;;77.13;13.90;;;3.80;99.90;;;;;;5129893;27;20408;-77
2022/11/12 06:25:10;;;;;;;34.70;11.48;;;3.70;99.90;;;;;;5139296;27;20034;-77
2022/11/12 06:27:36;;;;;;;37.90;11.60;;;3.70;99.90;;;;;;5148014;27;20099;-78
2022/11/12 06:30:03;;;;;;;91.65;16.70;;;3.70;99.90;;;;;;5150083;27;20860;-77
2022/11/12 06:32:29;;;;;;;54.92;13.13;;;3.70;99.90;;;;;;5150296;27;20145;-77
2022/11/12 06:34:54;;;;;;;251.55;27.83;;;3.70;99.90;;;;;;5134651;27;20150;-78
2022/11/12 06:37:20;;;;;;;46.83;12.48;;;3.70;99.90;;;;;;5143941;27;20050;-78
2022/11/12 06:39:46;;;;;;;43.30;12.03;;;3.70;99.90;;;;;;5145236;27;20038;-77
2022/11/12 06:42:12;;;;;;;34.70;11.43;;;3.60;99.90;;;;;;5143589;27;20059;-77
2022/11/12 06:44:38;;;;;;;74.43;13.82;;;3.60;99.90;;;;;;5131536;27;20042;-77
2022/11/12 06:47:04;;;;;;;38.00;10.60;;;3.60;99.90;;;;;;5139814;27;20045;-77
2022/11/12 06:49:29;;;;;;;51.45;12.75;;;3.60;99.90;;;;;;5138261;27;20043;-77
2022/11/12 06:51:55;;;;;;;24.08;10.52;;;3.50;99.90;;;;;;5141182;27;20050;-77
2022/11/12 06:54:20;;;;;;;19.08;10.27;;;3.50;99.90;;;;;;5151296;27;20043;-77
2022/11/12 06:56:46;;;;;;;24.35;10.95;;;3.50;99.90;;;;;;5150521;27;20051;-77
2022/11/12 06:59:11;;;;;;;20.35;10.70;;;3.40;99.90;;;;;;5150127;27;20493;-77
2022/11/12 07:01:37;;;;;;;17.63;10.60;;;3.40;99.90;;;;;;5149603;27;20130;-77
2022/11/12 07:04:03;;;;;;;21.08;10.18;;;3.40;99.90;;;;;;5132040;27;20559;-77
2022/11/12 07:06:28;;;;;;;19.27;10.98;;;3.40;99.90;;;;;;5149676;27;20047;-77
2022/11/12 07:08:54;;;;;;;18.15;11.05;;;3.40;99.90;;;;;;5151728;27;20172;-77
2022/11/12 07:11:20;;;;;;;15.30;11.02;;;3.40;99.90;;;;;;5151240;27;20349;-77
2022/11/12 07:13:47;;;;;;;17.52;11.10;;;3.40;99.90;;;;;;5150789;27;20187;-78
2022/11/12 07:16:17;;;;;;;15.55;11.02;;;3.90;99.90;;;;;;5132280;27;20109;-77
2022/11/12 07:18:44;;;;;;;17.55;11.20;;;3.40;99.90;;;;;;5116277;27;20052;-78
2022/11/12 07:21:12;;;;;;;15.25;11.52;;;3.40;99.90;;;;;;5146263;27;20046;-77
2022/11/12 07:23:38;;;;;;;15.63;10.23;;;3.50;99.90;;;;;;5138737;27;20077;-77
2022/11/12 07:26:06;;;;;;;15.48;11.40;;;3.50;99.90;;;;;;5143535;27;20473;-78
2022/11/12 07:28:32;;;;;;;15.98;11.23;;;3.50;99.90;;;;;;5143270;27;20053;-78
2022/11/12 07:31:00;;;;;;;12.35;9.02;;;3.50;99.90;;;;;;5148917;27;20527;-78
2022/11/12 07:33:27;;;;;;;14.68;10.00;;;3.50;99.90;;;;;;5136058;27;20101;-78
2022/11/12 07:36:01;;;;;;;17.45;12.40;;;3.50;99.90;;;;;;5129188;27;20047;-77
2022/11/12 07:38:28;;;;;;;12.57;9.85;;;3.50;99.90;;;;;;5138878;27;20077;-77
2022/11/12 07:41:05;;;;;;;17.00;11.52;;;3.50;99.90;;;;;;5131095;27;20054;-78
2022/11/12 07:43:32;;;;;;;16.40;11.10;;;3.50;99.90;;;;;;5132870;27;20055;-78
2022/11/12 07:46:07;;;;;;;16.92;11.80;;;3.60;99.90;;;;;;5149655;27;20050;-78
2022/11/12 07:48:33;;;;;;;15.10;11.50;;;3.60;99.90;;;;;;5145156;27;20089;-78
2022/11/12 07:51:19;;;;;;;16.08;10.80;;;3.60;99.90;;;;;;5148572;27;20082;-78
2022/11/12 07:53:45;;;;;;;13.10;10.35;;;3.70;99.90;;;;;;5119836;27;20150;-78
2022/11/12 07:56:14;;;;;;;18.17;11.15;;;3.60;99.90;;;;;;5115151;27;20047;-78
2022/11/12 07:58:40;;;;;;;16.02;10.75;;;3.70;99.90;;;;;;5117327;27;20101;-78
2022/11/12 08:01:08;;;;;;;13.45;10.65;;;3.70;99.90;;;;;;5130265;27;20125;-78
2022/11/12 08:03:34;;;;;;;16.45;10.55;;;3.70;99.90;;;;;;5114817;27;20034;-78
2022/11/12 08:06:00;;;;;;;19.52;11.13;;;3.80;99.90;;;;;;5137666;27;20416;-78
2022/11/12 08:08:26;;;;;;;15.57;10.88;;;3.80;99.90;;;;;;5134976;27;20054;-78
2022/11/12 08:10:56;;;;;;;17.00;12.15;;;3.80;99.90;;;;;;5133616;27;20043;-78
2022/11/12 08:13:22;;;;;;;14.48;11.05;;;3.90;99.90;;;;;;5150481;27;20531;-78
2022/11/12 08:15:48;;;;;;;19.33;13.10;;;3.90;99.90;;;;;;5149387;27;20046;-77
2022/11/12 08:18:14;;;;;;;27.63;13.68;;;4.00;99.90;;;;;;5148525;27;20042;-78
2022/11/12 08:20:39;;;;;;;17.15;12.65;;;4.10;99.90;;;;;;5136542;27;20066;-78
2022/11/12 08:23:05;;;;;;;15.15;12.10;;;4.20;99.90;;;;;;5141718;27;20484;-78
2022/11/12 08:25:30;;;;;;;16.70;12.57;;;4.30;99.90;;;;;;5149021;27;20038;-78
2022/11/12 08:27:58;;;;;;;16.05;11.80;;;4.40;99.90;;;;;;5147494;27;20039;-78
2022/11/12 08:30:25;;;;;;;13.95;10.32;;;4.40;99.90;;;;;;5150223;27;20042;-78
2022/11/12 08:33:16;;;;;;;15.48;12.32;;;4.50;99.90;;;;;;5142479;27;20047;-77
2022/11/12 08:35:42;;;;;;;13.10;10.40;;;4.60;99.90;;;;;;5135701;27;20142;-78
2022/11/12 08:38:09;;;;;;;15.23;11.00;;;4.60;99.90;;;;;;5147093;27;20085;-77
2022/11/12 08:40:35;;;;;;;15.82;12.10;;;4.60;99.90;;;;;;5131350;27;20054;-78
2022/11/12 08:43:08;;;;;;;18.10;12.32;;;4.70;99.90;;;;;;5129922;27;20050;-78
2022/11/12 08:45:36;;;;;;;22.08;12.50;;;4.70;99.90;;;;;;5148344;27;20046;-78
2022/11/12 08:48:05;;;;;;;15.20;11.20;;;4.80;99.90;;;;;;5146613;27;20508;-78
2022/11/12 08:50:32;;;;;;;19.38;12.60;;;4.90;99.90;;;;;;5148165;27;20122;-78
2022/11/12 08:53:06;;;;;;;15.00;11.82;;;5.00;99.90;;;;;;5137341;27;20488;-78
2022/11/12 08:55:32;;;;;;;19.13;11.95;;;5.10;99.90;;;;;;5148678;27;20452;-78
2022/11/12 08:58:00;;;;;;;17.77;12.27;;;5.10;99.90;;;;;;5147049;27;20682;-78
2022/11/12 09:00:38;;;;;;;15.93;12.02;;;5.20;99.90;;;;;;5148125;27;20043;-78
2022/11/12 09:03:07;;;;;;;16.50;13.05;;;5.30;99.90;;;;;;5124633;27;20088;-79
2022/11/12 09:05:36;;;;;;;20.77;13.63;;;5.40;99.90;;;;;;5144932;27;20046;-78
2022/11/12 09:08:05;;;;;;;19.73;12.50;;;5.50;99.90;;;;;;5132100;27;20050;-78
2022/11/12 09:10:33;;;;;;;19.65;12.57;;;5.60;99.90;;;;;;5139231;27;20034;-77
2022/11/12 09:12:59;;;;;;;21.38;13.82;;;5.70;99.90;;;;;;5148142;27;20165;-77
2022/11/12 09:15:25;;;;;;;18.25;13.85;;;6.20;99.90;;;;;;5137960;27;20567;-78
2022/11/12 09:18:03;;;;;;;18.08;12.95;;;5.90;99.90;;;;;;5113145;28;20073;-78
2022/11/12 09:20:29;;;;;;;21.95;14.73;;;6.00;99.90;;;;;;5110339;28;20445;-78
2022/11/12 09:23:00;;;;;;;19.00;13.48;;;6.10;99.90;;;;;;5120726;28;20541;-77
2022/11/12 09:25:26;;;;;;;18.30;13.80;;;6.20;99.90;;;;;;5143605;27;20035;-77
2022/11/12 09:27:52;;;;;;;18.88;13.93;;;6.30;99.90;;;;;;5141930;27;20058;-78
2022/11/12 09:30:18;;;;;;;19.45;13.70;;;6.40;99.90;;;;;;5127138;28;20054;-77
2022/11/12 09:32:43;;;;;;;19.52;13.77;;;6.50;99.90;;;;;;5135743;27;20035;-78
2022/11/12 09:35:09;;;;;;;20.90;14.85;;;6.60;99.90;;;;;;5127432;28;20058;-78
2022/11/12 09:37:38;;;;;;;21.52;15.15;;;6.80;99.90;;;;;;5127146;28;20050;-78
2022/11/12 09:40:05;;;;;;;20.65;13.65;;;6.90;99.90;;;;;;5127767;27;20045;-77
2022/11/12 09:42:34;;;;;;;21.77;15.48;;;7.00;99.90;;;;;;5128748;27;20082;-78
2022/11/12 09:45:06;;;;;;;17.50;13.50;;;7.10;99.90;;;;;;5126836;28;20043;-77
2022/11/12 09:47:37;;;;;;;19.55;14.95;;;7.20;99.90;;;;;;5134097;27;20046;-77
2022/11/12 09:50:38;;;;;;;19.17;13.93;;;7.30;99.90;;;;;;5140417;27;20046;-78
2022/11/12 09:53:10;;;;;;;18.58;14.10;;;7.50;99.90;;;;;;5106074;27;20058;-77
2022/11/12 09:55:41;;;;;;;19.90;13.80;;;7.60;99.90;;;;;;5131204;27;20047;-78
2022/11/12 09:58:15;;;;;;;21.33;13.93;;;7.80;99.90;;;;;;5131402;27;20416;-78
2022/11/12 10:00:51;;;;;;;18.10;13.68;;;7.90;99.90;;;;;;5131988;27;20055;-78
2022/11/12 10:03:45;;;;;;;21.73;14.73;;;8.00;99.90;;;;;;5131413;27;20124;-77
2022/11/12 10:06:17;;;;;;;19.90;13.93;;;8.10;99.90;;;;;;5151513;27;20046;-77
2022/11/12 10:08:54;;;;;;;17.17;13.43;;;8.20;99.90;;;;;;5131289;27;20058;-77
2022/11/12 10:12:30;;;;;;;18.15;13.77;;;8.30;99.90;;;;;;5130424;27;20794;-77
2022/11/12 10:14:47;;;;;;;15.80;13.07;;;8.40;99.90;;;;;;5131715;27;20472;-77
2022/11/12 10:17:33;;;;;;;;;;;8.50;99.90;;;;;;5131060;27;20373;-78
2022/11/12 10:20:23;;;;;;;16.95;12.65;;;8.60;99.90;;;;;;5112572;27;19940;-77
2022/11/12 10:22:52;;;;;;;13.82;12.05;;;8.70;99.90;;;;;;5130474;27;20059;-77
2022/11/12 10:25:20;;;;;;;13.43;11.38;;;8.80;99.90;;;;;;5130657;27;20039;-77
2022/11/12 10:27:47;;;;;;;13.48;11.77;;;8.90;99.90;;;;;;5131117;27;20047;-77
2022/11/12 10:30:19;;;;;;;14.43;11.52;;;9.00;99.90;;;;;;5130172;27;20047;-77
2022/11/12 10:32:47;;;;;;;13.18;11.35;;;9.00;99.90;;;;;;5130457;27;20051;-77
2022/11/12 10:35:18;;;;;;;13.63;11.30;;;9.20;99.90;;;;;;5130540;27;20551;-77
2022/11/12 10:37:53;;;;;;;14.68;11.20;;;9.30;99.90;;;;;;5130487;27;20053;-78
2022/11/12 10:40:36;;;;;;;12.82;11.10;;;9.40;99.90;;;;;;5145687;27;20058;-77
2022/11/12 10:43:22;;;;;;;11.88;10.35;;;9.40;99.90;;;;;;5130091;27;20460;-78
2022/11/12 10:45:49;;;;;;;12.00;10.30;;;9.50;99.90;;;;;;5131343;27;20036;-78
2022/11/12 10:48:32;;;;;;;12.45;10.80;;;9.60;99.90;;;;;;5129425;27;20043;-78
2022/11/12 10:50:59;;;;;;;19.75;10.90;;;9.70;99.90;;;;;;5136869;27;20428;-78
2022/11/12 10:53:36;;;;;;;15.27;11.07;;;9.70;99.90;;;;;;5139671;27;20099;-78
2022/11/12 10:56:04;;;;;;;11.27;10.18;;;9.80;99.90;;;;;;5132512;27;20047;-78
2022/11/12 10:58:30;;;;;;;11.60;10.10;;;9.90;99.90;;;;;;5124813;27;20054;-78
2022/11/12 11:01:13;;;;;;;11.05;9.85;;;10.00;99.90;;;;;;5148520;27;20496;-79
2022/11/12 11:04:14;;;;;;;11.45;9.95;;;10.10;99.90;;;;;;5133382;27;20069;-78
2022/11/12 11:06:40;;;;;;;12.70;10.52;;;10.20;99.90;;;;;;5150134;27;20113;-79
2022/11/12 11:09:11;;;;;;;11.45;10.32;;;10.20;99.90;;;;;;5132229;27;20038;-78
2022/11/12 11:11:47;;;;;;;14.75;10.32;;;10.20;99.90;;;;;;5134071;27;20046;-79
2022/11/12 11:14:22;;;;;;;12.00;10.70;;;10.30;99.90;;;;;;5127910;27;20042;-79
2022/11/12 11:16:53;;;;;;;13.32;9.77;;;10.40;99.90;;;;;;5116035;27;20046;-79
2022/11/12 11:19:19;;;;;;;15.63;9.80;;;10.50;99.90;;;;;;5149606;27;20046;-80
2022/11/12 11:21:48;;;;;;;12.00;10.80;;;10.60;99.90;;;;;;5141723;27;20099;-78
2022/11/12 11:24:20;;;;;;;11.80;9.63;;;10.80;99.90;;;;;;5130508;27;20122;-78
2022/11/12 11:27:10;;;;;;;13.40;10.23;;;10.90;99.90;;;;;;5128888;27;20044;-79
2022/11/12 11:30:08;;;;;;;10.23;9.13;;;10.90;99.90;;;;;;5129477;27;20074;-78
2022/11/12 11:33:16;;;;;;;14.57;9.68;;;11.10;99.90;;;;;;5126040;27;20098;-79
2022/11/12 11:35:58;;;;;;;10.35;8.98;;;11.20;99.90;;;;;;5131667;27;20050;-78
2022/11/12 11:38:33;;;;;;;;;;;11.30;99.90;;;;;;5141822;27;20043;-79
2022/11/12 11:41:28;;;;;;;10.45;8.70;;;11.40;99.90;;;;;;5142472;27;19923;-79
2022/11/12 11:44:31;;;;;;;11.38;9.15;;;11.50;99.90;;;;;;5135860;27;20047;-78
2022/11/12 11:47:41;;;;;;;12.70;8.88;;;11.60;99.90;;;;;;5143631;27;20042;-77
2022/11/12 11:50:24;;;;;;;9.93;8.82;;;11.80;99.90;;;;;;5107558;28;20055;-80
2022/11/12 11:52:49;;;;;;;;;;;11.90;99.90;;;;;;5090915;28;20052;-80
2022/11/12 11:55:35;;;;;;;10.15;8.65;;;11.90;99.90;;;;;;5078027;28;20038;-80
2022/11/12 11:58:22;;;;;;;11.57;7.93;;;12.10;99.90;;;;;;5068534;28;20132;-80
2022/11/12 12:00:53;;;;;;;9.55;8.65;;;12.20;99.90;;;;;;5081090;27;20122;-80
2022/11/12 12:03:40;;;;;;;9.60;8.52;;;12.30;99.90;;;;;;5128068;27;20123;-79
2022/11/12 12:06:21;;;;;;;10.75;8.77;;;12.40;99.90;;;;;;5127835;27;20089;-79
2022/11/12 12:09:01;;;;;;;9.88;8.98;;;12.50;99.90;;;;;;5128516;27;20043;-79
2022/11/12 12:11:53;;;;;;;12.45;8.80;;;12.60;99.90;;;;;;5139853;27;20067;-80
2022/11/12 12:14:36;;;;;;;9.63;8.60;;;12.60;99.90;;;;;;5144968;27;20051;-80
2022/11/12 12:17:17;;;;;;;12.02;8.70;;;12.60;99.90;;;;;;5147717;27;20070;-80
2022/11/12 12:20:25;;;;;;;11.20;8.43;;;12.70;99.90;;;;;;5139486;27;20069;-80
2022/11/12 12:23:05;;;;;;;12.75;8.82;;;12.70;99.90;;;;;;5110997;27;20046;-78
2022/11/12 12:25:40;;;;;;;11.82;9.15;;;12.70;99.90;;;;;;5141719;27;20046;-78
2022/11/12 12:28:11;;;;;;;9.70;8.70;;;12.80;99.90;;;;;;5128910;27;20047;-79
2022/11/12 12:30:43;;;;;;;11.40;8.70;;;12.80;99.90;;;;;;5128087;27;20096;-79
2022/11/12 12:33:41;;;;;;;10.93;8.55;;;12.80;99.90;;;;;;5141420;27;20039;-81
2022/11/12 12:36:10;;;;;;;10.68;8.40;;;12.90;99.90;;;;;;5148584;27;20176;-80
2022/11/12 12:38:47;;;;;;;9.82;8.65;;;12.90;99.90;;;;;;5148858;27;20042;-80
2022/11/12 12:41:26;;;;;;;10.65;8.75;;;12.90;99.90;;;;;;5129468;27;20043;-80
2022/11/12 12:44:01;;;;;;;10.52;8.50;;;12.90;99.90;;;;;;5148546;27;20150;-80
2022/11/12 12:46:32;;;;;;;10.55;8.55;;;12.90;99.90;;;;;;5148129;27;20182;-80
2022/11/12 12:48:59;;;;;;;9.85;8.15;;;12.90;99.90;;;;;;5131201;27;20061;-80
2022/11/12 12:51:29;;;;;;;10.43;9.27;;;12.90;99.90;;;;;;5147966;27;20106;-80
2022/11/12 12:53:54;;;;;;;10.63;9.20;;;12.90;99.90;;;;;;5148230;27;20077;-80
2022/11/12 12:56:23;;;;;;;10.43;9.25;;;12.90;99.90;;;;;;5126177;27;20077;-80
2022/11/12 12:58:49;;;;;;;10.95;9.20;;;12.90;99.90;;;;;;5110606;27;20442;-80
2022/11/12 13:01:21;;;;;;;9.95;8.95;;;12.90;99.90;;;;;;5127291;27;20051;-80
2022/11/12 13:03:56;;;;;;;9.68;8.52;;;12.90;99.90;;;;;;5125789;27;20065;-81
2022/11/12 13:06:21;;;;;;;11.30;8.90;;;12.90;99.90;;;;;;5148438;27;20038;-81
2022/11/12 13:09:00;;;;;;;11.10;9.23;;;13.00;99.90;;;;;;5148357;27;20041;-80
2022/11/12 13:14:30;;;;;;;10.10;9.00;;;13.00;99.90;;;;;;5149259;27;20053;-78
2022/11/12 13:17:02;;;;;;;12.88;9.23;;;13.00;99.90;;;;;;5147545;27;20471;-78
2022/11/12 13:19:33;;;;;;;10.27;9.27;;;12.90;99.90;;;;;;5127594;28;20035;-78
2022/11/12 13:22:17;;;;;;;11.20;9.25;;;13.00;99.90;;;;;;5128421;27;20047;-77
2022/11/12 13:25:01;;;;;;;10.02;9.02;;;12.90;99.90;;;;;;5136640;27;20178;-77